Time;durP1;ratioP1;P1;durP2;ratioP2;P2;SDS_P1;SDS_P2;PMS_P1;PMS_P2;Temp;Humidity;BMP_temperature;BMP_pressure;BME280_temperature;BME280_humidity;BME280_pressure;Samples;Min_cycle;Max_cycle;Signal;HPM_P1;HPM_P2
2023/04/27 00:01:43;;;;;;;4.82;2.90;;;;;;;;;;5094867;28;20044;-65
2023/04/27 00:04:13;;;;;;;7.13;3.25;;;;;;;;;;5094934;28;20081;-65
2023/04/27 00:06:40;;;;;;;4.57;3.00;;;;;;;;;;5094597;28;20040;-65
2023/04/27 00:09:08;;;;;;;3.53;3.03;;;;;;;;;;5094873;28;20044;-64
2023/04/27 00:11:35;;;;;;;4.55;3.13;;;;;;;;;;5094660;28;20535;-65
2023/04/27 00:14:03;;;;;;;6.05;3.60;;;;;;;;;;5094777;28;20454;-64
2023/04/27 00:16:31;;;;;;;4.50;3.28;;;;;;;;;;5094694;28;20036;-64
2023/04/27 00:18:59;;;;;;;3.33;2.95;;;;;;;;;;5094662;28;20047;-64
2023/04/27 00:21:27;;;;;;;3.92;2.72;;;;;;;;;;5094493;28;20036;-64
2023/04/27 00:23:54;;;;;;;5.30;3.22;;;;;;;;;;5094296;28;20052;-65
2023/04/27 00:26:22;;;;;;;5.93;3.55;;;;;;;;;;5094239;28;20444;-65
2023/04/27 00:28:52;;;;;;;6.72;3.45;;;;;;;;;;5094469;28;20484;-65
2023/04/27 00:31:20;;;;;;;5.95;3.85;;;;;;;;;;5093152;28;20071;-64
2023/04/27 00:33:48;;;;;;;6.18;3.80;;;;;;;;;;5093054;28;20134;-64
2023/04/27 00:36:16;;;;;;;6.65;4.10;;;;;;;;;;5092401;28;20421;-65
2023/04/27 00:38:43;;;;;;;5.70;4.03;;;;;;;;;;5092955;28;20040;-65
2023/04/27 00:41:11;;;;;;;6.63;3.70;;;;;;;;;;5109749;28;20044;-65
2023/04/27 00:43:45;;;;;;;6.20;4.15;;;;;;;;;;5109888;28;20084;-65
2023/04/27 00:46:13;;;;;;;5.82;4.05;;;;;;;;;;5109766;28;20040;-65
2023/04/27 00:48:41;;;;;;;6.63;4.13;;;;;;;;;;5094081;28;20036;-65
2023/04/27 00:51:08;;;;;;;6.88;4.32;;;;;;;;;;5092814;28;20044;-65
2023/04/27 00:53:37;;;;;;;6.38;4.32;;;;;;;;;;5109689;28;20040;-65
2023/04/27 00:56:05;;;;;;;8.18;4.13;;;;;;;;;;5109925;28;20043;-65
2023/04/27 00:58:32;;;;;;;6.75;4.10;;;;;;;;;;5109484;28;20048;-65
2023/04/27 01:01:00;;;;;;;5.90;4.55;;;;;;;;;;5109600;28;20055;-65
2023/04/27 01:03:30;;;;;;;7.68;4.47;;;;;;;;;;5093598;28;20048;-64
2023/04/27 01:06:00;;;;;;;8.18;4.88;;;;;;;;;;5075653;28;20126;-65
2023/04/27 01:08:28;;;;;;;8.77;5.15;;;;;;;;;;5092364;28;20036;-65
2023/04/27 01:10:56;;;;;;;7.93;4.70;;;;;;;;;;5109098;28;20036;-65
2023/04/27 01:13:23;;;;;;;7.40;4.82;;;;;;;;;;5109210;28;20064;-65
2023/04/27 01:15:51;;;;;;;8.82;4.88;;;;;;;;;;5093436;28;20036;-65
2023/04/27 01:18:18;;;;;;;6.63;5.07;;;;;;;;;;5092291;28;20048;-65
2023/04/27 01:20:46;;;;;;;8.88;5.50;;;;;;;;;;5093275;28;20036;-65
2023/04/27 01:23:14;;;;;;;6.63;4.82;;;;;;;;;;5109062;28;20072;-65
2023/04/27 01:25:44;;;;;;;7.70;4.82;;;;;;;;;;5092014;28;20055;-65
2023/04/27 01:28:11;;;;;;;7.82;5.38;;;;;;;;;;5092005;28;20087;-65
2023/04/27 01:30:39;;;;;;;9.65;5.68;;;;;;;;;;5109001;28;20080;-65
2023/04/27 01:33:06;;;;;;;7.65;5.47;;;;;;;;;;5091967;28;20068;-65
2023/04/27 01:35:34;;;;;;;9.70;5.20;;;;;;;;;;5091868;28;20066;-65
2023/04/27 01:38:01;;;;;;;6.50;4.78;;;;;;;;;;5091977;28;20036;-65
2023/04/27 01:40:29;;;;;;;9.23;5.40;;;;;;;;;;5108857;28;20056;-65
2023/04/27 01:42:56;;;;;;;8.38;5.15;;;;;;;;;;5091890;28;20036;-66
2023/04/27 01:45:24;;;;;;;11.38;5.07;;;;;;;;;;5108648;28;20067;-65
2023/04/27 01:47:52;;;;;;;8.05;5.07;;;;;;;;;;5108157;28;20109;-65
2023/04/27 01:50:20;;;;;;;10.25;5.47;;;;;;;;;;5108184;28;20044;-65
2023/04/27 01:52:47;;;;;;;9.10;4.88;;;;;;;;;;5108607;28;20066;-65
2023/04/27 01:55:15;;;;;;;9.57;5.57;;;;;;;;;;5108335;28;20044;-65
2023/04/27 01:57:42;;;;;;;9.35;5.40;;;;;;;;;;5108579;28;20048;-65
2023/04/27 02:00:11;;;;;;;7.95;5.20;;;;;;;;;;5091451;28;20067;-65
2023/04/27 02:02:49;;;;;;;10.35;5.60;;;;;;;;;;5093122;28;20496;-65
2023/04/27 02:05:17;;;;;;;10.45;6.25;;;;;;;;;;5092676;28;20039;-65
2023/04/27 02:07:46;;;;;;;9.98;5.60;;;;;;;;;;5091641;28;20131;-65
2023/04/27 02:10:13;;;;;;;9.95;5.63;;;;;;;;;;5108378;28;20043;-65
2023/04/27 02:12:41;;;;;;;9.38;6.30;;;;;;;;;;5108339;28;20042;-65
2023/04/27 02:15:08;;;;;;;8.95;5.82;;;;;;;;;;5108134;28;20044;-65
2023/04/27 02:17:37;;;;;;;8.73;5.78;;;;;;;;;;5091138;28;20051;-65
2023/04/27 02:20:09;;;;;;;9.50;5.97;;;;;;;;;;5091248;28;20052;-65
2023/04/27 02:22:37;;;;;;;10.27;6.20;;;;;;;;;;5091145;28;20047;-65
2023/04/27 02:25:05;;;;;;;8.80;5.70;;;;;;;;;;5108107;28;20037;-65
2023/04/27 02:27:32;;;;;;;9.15;5.53;;;;;;;;;;5091584;28;20425;-65
2023/04/27 02:30:04;;;;;;;8.02;5.80;;;;;;;;;;5092820;28;20036;-65
2023/04/27 02:32:32;;;;;;;11.25;5.40;;;;;;;;;;5091163;28;20127;-65
2023/04/27 02:34:59;;;;;;;8.10;5.63;;;;;;;;;;5091101;28;20128;-66
2023/04/27 02:37:28;;;;;;;8.00;5.50;;;;;;;;;;5090973;28;20072;-66
2023/04/27 02:39:56;;;;;;;9.98;5.28;;;;;;;;;;5091068;28;20496;-66
2023/04/27 02:42:23;;;;;;;9.73;6.72;;;;;;;;;;5108085;28;20127;-66
2023/04/27 02:44:51;;;;;;;8.30;5.35;;;;;;;;;;5074408;28;20075;-66
2023/04/27 02:47:18;;;;;;;9.30;5.63;;;;;;;;;;5107887;28;20048;-66
2023/04/27 02:49:46;;;;;;;9.07;5.32;;;;;;;;;;5107962;28;20573;-66
2023/04/27 02:52:13;;;;;;;7.15;5.18;;;;;;;;;;5107928;28;20044;-66
2023/04/27 02:54:41;;;;;;;10.10;4.97;;;;;;;;;;5107737;28;20090;-66
2023/04/27 02:57:08;;;;;;;8.18;5.18;;;;;;;;;;5107942;28;20036;-66
2023/04/27 02:59:36;;;;;;;11.48;5.72;;;;;;;;;;5108234;28;20048;-66
2023/04/27 03:02:03;;;;;;;9.43;5.60;;;;;;;;;;5111624;28;20048;-66
2023/04/27 03:04:31;;;;;;;8.70;5.65;;;;;;;;;;5111785;28;20070;-66
2023/04/27 03:06:58;;;;;;;7.07;5.68;;;;;;;;;;5094528;28;20075;-66
2023/04/27 03:09:26;;;;;;;9.63;5.60;;;;;;;;;;5111588;28;20074;-66
2023/04/27 03:11:53;;;;;;;8.82;5.20;;;;;;;;;;5111608;28;20044;-66
2023/04/27 03:14:22;;;;;;;10.63;6.43;;;;;;;;;;5111513;28;20044;-66
2023/04/27 03:16:51;;;;;;;7.00;5.18;;;;;;;;;;5095941;28;20555;-66
2023/04/27 03:19:19;;;;;;;12.70;5.05;;;;;;;;;;5096061;28;20090;-66
2023/04/27 03:21:46;;;;;;;10.70;5.78;;;;;;;;;;5094596;28;20048;-66
2023/04/27 03:24:15;;;;;;;9.00;5.57;;;;;;;;;;5111402;28;20044;-66
2023/04/27 03:26:42;;;;;;;6.72;4.70;;;;;;;;;;5094458;28;20102;-66
2023/04/27 03:29:10;;;;;;;7.03;5.20;;;;;;;;;;5094498;28;20123;-66
2023/04/27 03:31:38;;;;;;;7.60;5.43;;;;;;;;;;5095609;28;20051;-66
2023/04/27 03:34:05;;;;;;;10.68;5.60;;;;;;;;;;5095329;28;20032;-66
2023/04/27 03:36:33;;;;;;;9.48;5.78;;;;;;;;;;5111055;28;20103;-66
2023/04/27 03:39:00;;;;;;;8.63;5.63;;;;;;;;;;5111433;28;20070;-66
2023/04/27 03:41:28;;;;;;;12.98;5.88;;;;;;;;;;5095313;28;20044;-66
2023/04/27 03:43:56;;;;;;;9.40;5.15;;;;;;;;;;5111008;28;20040;-66
2023/04/27 03:46:24;;;;;;;13.43;5.53;;;;;;;;;;5094042;28;20130;-66
2023/04/27 03:48:51;;;;;;;9.55;5.78;;;;;;;;;;5110877;28;20406;-66
2023/04/27 03:51:19;;;;;;;8.52;5.40;;;;;;;;;;5110705;28;20059;-66
2023/04/27 03:53:47;;;;;;;9.35;5.45;;;;;;;;;;5093850;28;20512;-66
2023/04/27 03:56:14;;;;;;;10.30;5.88;;;;;;;;;;5111016;28;20089;-66
2023/04/27 03:58:42;;;;;;;7.30;5.07;;;;;;;;;;5110535;28;20048;-65
2023/04/27 04:01:32;;;;;;;10.35;4.80;;;;;;;;;;5097558;28;20564;-66
2023/04/27 04:04:00;;;;;;;8.80;5.63;;;;;;;;;;5093765;28;20048;-66
2023/04/27 04:06:28;;;;;;;8.45;4.97;;;;;;;;;;5093533;28;20131;-66
2023/04/27 04:08:56;;;;;;;7.82;5.03;;;;;;;;;;5093615;28;20055;-67
2023/04/27 04:11:24;;;;;;;10.10;4.80;;;;;;;;;;5109697;28;20068;-66
2023/04/27 04:13:55;;;;;;;9.27;5.15;;;;;;;;;;5093615;28;20048;-67
2023/04/27 04:16:23;;;;;;;8.63;5.07;;;;;;;;;;5093633;28;20109;-67
2023/04/27 04:18:52;;;;;;;8.82;4.90;;;;;;;;;;5093395;28;20135;-66
2023/04/27 04:21:20;;;;;;;7.72;5.07;;;;;;;;;;5076624;28;20032;-66
2023/04/27 04:23:48;;;;;;;9.32;5.03;;;;;;;;;;5110253;28;20060;-66
2023/04/27 04:26:19;;;;;;;7.60;4.80;;;;;;;;;;5093142;28;20140;-66
2023/04/27 04:28:47;;;;;;;9.23;4.95;;;;;;;;;;5093119;28;20036;-66
2023/04/27 04:31:17;;;;;;;8.98;5.65;;;;;;;;;;5092952;28;20075;-66
2023/04/27 04:33:44;;;;;;;7.28;5.65;;;;;;;;;;5093079;28;20044;-66
2023/04/27 04:36:14;;;;;;;8.38;5.90;;;;;;;;;;5094157;28;20040;-66
2023/04/27 04:38:42;;;;;;;12.18;5.40;;;;;;;;;;5109845;28;20044;-66
2023/04/27 04:41:09;;;;;;;7.28;5.20;;;;;;;;;;5075938;28;20055;-66
2023/04/27 04:43:37;;;;;;;8.27;5.43;;;;;;;;;;5092775;28;20472;-66
2023/04/27 04:46:06;;;;;;;10.77;6.40;;;;;;;;;;5076178;28;20040;-66
2023/04/27 04:48:34;;;;;;;9.23;5.90;;;;;;;;;;5092609;28;20048;-66
2023/04/27 04:51:02;;;;;;;9.98;6.28;;;;;;;;;;5092703;28;20051;-66
2023/04/27 04:53:30;;;;;;;11.38;6.40;;;;;;;;;;5092678;28;20044;-66
2023/04/27 04:55:57;;;;;;;8.05;5.28;;;;;;;;;;5092656;28;20048;-66
2023/04/27 04:58:25;;;;;;;9.52;5.82;;;;;;;;;;5109293;28;20052;-66
2023/04/27 05:00:53;;;;;;;9.98;5.45;;;;;;;;;;5109263;28;20048;-66
2023/04/27 05:03:20;;;;;;;8.57;5.00;;;;;;;;;;5093732;28;20039;-61
2023/04/27 05:05:48;;;;;;;10.57;5.57;;;;;;;;;;5092137;28;20068;-61
2023/04/27 05:08:16;;;;;;;10.07;5.53;;;;;;;;;;5090672;28;20058;-62
2023/04/27 05:10:49;;;;;;;11.98;7.38;;;;;;;;;;5072120;28;20040;-62
2023/04/27 05:13:16;;;;;;;13.70;7.40;;;;;;;;;;5081400;28;20043;-63
2023/04/27 05:15:44;;;;;;;11.18;6.65;;;;;;;;;;5084170;28;20068;-62
2023/04/27 05:18:11;;;;;;;8.40;5.78;;;;;;;;;;5092222;28;20048;-62
2023/04/27 05:20:39;;;;;;;10.10;5.40;;;;;;;;;;5079457;28;20060;-62
2023/04/27 05:23:06;;;;;;;8.60;5.32;;;;;;;;;;5093205;28;20093;-62
2023/04/27 05:25:40;;;;;;;9.23;5.07;;;;;;;;;;5093088;28;20032;-62
2023/04/27 05:28:08;;;;;;;10.00;5.22;;;;;;;;;;5091912;28;20124;-63
2023/04/27 05:30:36;;;;;;;9.70;5.32;;;;;;;;;;5071738;28;20032;-62
2023/04/27 05:33:04;;;;;;;8.07;5.20;;;;;;;;;;5072521;28;20094;-62
2023/04/27 05:35:31;;;;;;;13.30;6.00;;;;;;;;;;5072602;28;20116;-62
2023/04/27 05:37:59;;;;;;;10.27;5.85;;;;;;;;;;5072552;28;20072;-62
2023/04/27 05:40:26;;;;;;;7.13;4.63;;;;;;;;;;5071799;28;20044;-62
2023/04/27 05:42:54;;;;;;;6.97;4.25;;;;;;;;;;5078861;28;20040;-61
2023/04/27 05:45:22;;;;;;;7.00;4.30;;;;;;;;;;5078373;28;20047;-61
2023/04/27 05:47:49;;;;;;;9.57;4.90;;;;;;;;;;5056400;28;20052;-62
2023/04/27 05:50:17;;;;;;;11.57;4.93;;;;;;;;;;5071468;28;20177;-62
2023/04/27 05:52:45;;;;;;;12.25;5.43;;;;;;;;;;5066766;28;20508;-62
2023/04/27 05:55:12;;;;;;;10.13;5.65;;;;;;;;;;5077917;28;20067;-62
2023/04/27 05:57:40;;;;;;;10.43;4.75;;;;;;;;;;5085006;28;20328;-62
2023/04/27 06:00:09;;;;;;;7.80;4.60;;;;;;;;;;5074998;28;20045;-62
2023/04/27 06:02:40;;;;;;;7.30;4.25;;;;;;;;;;5054167;28;20052;-61
2023/04/27 06:05:08;;;;;;;10.23;4.75;;;;;;;;;;5073619;28;20041;-61
2023/04/27 06:07:36;;;;;;;4.97;3.85;;;;;;;;;;5078498;28;20038;-62
2023/04/27 06:10:04;;;;;;;9.18;4.40;;;;;;;;;;5070449;28;20509;-62
2023/04/27 06:12:32;;;;;;;13.20;4.43;;;;;;;;;;5085332;28;20052;-61
2023/04/27 06:14:59;;;;;;;7.60;3.95;;;;;;;;;;5081935;28;20041;-62
2023/04/27 06:17:26;;;;;;;9.60;4.57;;;;;;;;;;5082297;28;20047;-61
2023/04/27 06:19:54;;;;;;;11.77;4.38;;;;;;;;;;5077949;28;20041;-62
2023/04/27 06:22:22;;;;;;;11.27;5.10;;;;;;;;;;5091174;28;20036;-61
2023/04/27 06:24:49;;;;;;;11.13;4.60;;;;;;;;;;5092122;28;20097;-62
2023/04/27 06:27:17;;;;;;;7.93;3.88;;;;;;;;;;5080584;28;20058;-61
2023/04/27 06:29:44;;;;;;;12.10;4.18;;;;;;;;;;5092391;28;20043;-61
2023/04/27 06:32:12;;;;;;;7.38;4.22;;;;;;;;;;5074451;28;20033;-62
2023/04/27 06:34:40;;;;;;;11.32;4.50;;;;;;;;;;5093006;28;20040;-62
2023/04/27 06:37:07;;;;;;;11.23;4.85;;;;;;;;;;5091819;28;20032;-62
2023/04/27 06:39:35;;;;;;;8.35;4.75;;;;;;;;;;5077836;28;20045;-62
2023/04/27 06:42:03;;;;;;;11.27;4.65;;;;;;;;;;5072347;28;20456;-62
2023/04/27 06:44:31;;;;;;;9.63;4.15;;;;;;;;;;5082732;28;20044;-62
2023/04/27 06:46:59;;;;;;;9.73;4.82;;;;;;;;;;5075601;28;20040;-62
2023/04/27 06:49:26;;;;;;;10.35;4.30;;;;;;;;;;5080085;28;20041;-62
2023/04/27 06:51:54;;;;;;;9.73;4.20;;;;;;;;;;5075824;28;20388;-61
2023/04/27 06:54:21;;;;;;;9.13;4.43;;;;;;;;;;5075558;28;20035;-61
2023/04/27 06:56:49;;;;;;;6.97;4.05;;;;;;;;;;5075528;28;20045;-61
2023/04/27 06:59:16;;;;;;;9.85;3.92;;;;;;;;;;5075238;28;20056;-61
2023/04/27 07:01:44;;;;;;;9.65;4.25;;;;;;;;;;5074782;28;20044;-62
2023/04/27 07:04:11;;;;;;;10.20;4.38;;;;;;;;;;5057913;28;20112;-62
2023/04/27 07:06:39;;;;;;;10.63;4.93;;;;;;;;;;5075188;28;20044;-62
2023/04/27 07:09:07;;;;;;;7.70;4.22;;;;;;;;;;5075409;28;20102;-62
2023/04/27 07:11:52;;;;;;;;;;;;;;;;;;5075630;28;20040;-63
2023/04/27 07:14:20;;;;;;;10.30;3.80;;;;;;;;;;5073826;28;19959;-62
2023/04/27 07:16:47;;;;;;;9.80;3.70;;;;;;;;;;5058961;28;20072;-62
2023/04/27 07:19:15;;;;;;;8.73;3.80;;;;;;;;;;5075187;28;20032;-62
2023/04/27 07:21:43;;;;;;;8.20;4.18;;;;;;;;;;5090941;28;20051;-62
2023/04/27 07:24:10;;;;;;;7.63;3.78;;;;;;;;;;5076718;28;20036;-61
2023/04/27 07:26:38;;;;;;;11.60;4.20;;;;;;;;;;5074922;28;20072;-62
2023/04/27 07:29:05;;;;;;;10.85;4.30;;;;;;;;;;5075018;28;20457;-62
2023/04/27 07:31:51;;;;;;;7.75;3.72;;;;;;;;;;5074317;28;20094;-62
2023/04/27 07:34:19;;;;;;;10.00;3.53;;;;;;;;;;5074757;28;20036;-63
2023/04/27 07:36:46;;;;;;;11.30;3.83;;;;;;;;;;5074641;28;20041;-61
2023/04/27 07:39:14;;;;;;;8.52;4.13;;;;;;;;;;5077898;28;20430;-61
2023/04/27 07:41:42;;;;;;;8.75;4.10;;;;;;;;;;5074756;28;20558;-61
2023/04/27 07:44:11;;;;;;;7.32;3.80;;;;;;;;;;5074726;28;20048;-61
2023/04/27 07:46:39;;;;;;;8.20;3.78;;;;;;;;;;5073370;28;20039;-61
2023/04/27 07:49:06;;;;;;;7.45;4.40;;;;;;;;;;5075629;28;20040;-61
2023/04/27 07:51:34;;;;;;;9.02;3.70;;;;;;;;;;5084051;28;20417;-61
2023/04/27 07:54:03;;;;;;;6.18;3.25;;;;;;;;;;5086570;28;20505;-61
2023/04/27 07:56:31;;;;;;;7.72;3.63;;;;;;;;;;5074518;28;20078;-61
2023/04/27 07:58:59;;;;;;;7.72;4.13;;;;;;;;;;5074150;28;20076;-61
2023/04/27 08:01:26;;;;;;;7.78;3.22;;;;;;;;;;5074549;28;20055;-61
2023/04/27 08:03:54;;;;;;;7.97;3.65;;;;;;;;;;5074116;28;20086;-62
2023/04/27 08:06:22;;;;;;;10.43;3.53;;;;;;;;;;5086610;28;20094;-62
2023/04/27 08:08:50;;;;;;;9.02;3.90;;;;;;;;;;5073652;28;20036;-63
2023/04/27 08:11:18;;;;;;;9.77;4.32;;;;;;;;;;5056261;28;20071;-62
2023/04/27 08:13:45;;;;;;;6.78;3.20;;;;;;;;;;5073044;28;20028;-62
2023/04/27 08:16:13;;;;;;;8.88;4.63;;;;;;;;;;5074034;28;20486;-62
2023/04/27 08:18:40;;;;;;;7.38;3.65;;;;;;;;;;5074401;28;20119;-62
2023/04/27 08:21:08;;;;;;;8.63;4.25;;;;;;;;;;5086772;28;20474;-63
2023/04/27 08:23:37;;;;;;;8.52;3.50;;;;;;;;;;5093097;28;20085;-62
2023/04/27 08:26:04;;;;;;;6.72;3.55;;;;;;;;;;5094316;28;20448;-62
2023/04/27 08:28:32;;;;;;;12.63;8.07;;;;;;;;;;5076292;28;20031;-62
2023/04/27 08:30:59;;;;;;;7.00;3.70;;;;;;;;;;5094159;28;20547;-62
2023/04/27 08:33:27;;;;;;;6.80;3.70;;;;;;;;;;5093861;28;20570;-62
2023/04/27 08:35:54;;;;;;;7.95;3.90;;;;;;;;;;5094348;28;20060;-62
2023/04/27 08:38:22;;;;;;;7.68;4.13;;;;;;;;;;5076088;28;20035;-62
2023/04/27 08:40:52;;;;;;;8.55;3.92;;;;;;;;;;5094041;28;20478;-62
2023/04/27 08:43:19;;;;;;;7.10;3.70;;;;;;;;;;5093941;28;20060;-62
2023/04/27 08:45:48;;;;;;;8.75;5.53;;;;;;;;;;5086846;28;20073;-62
2023/04/27 08:48:19;;;;;;;6.38;3.83;;;;;;;;;;5074927;28;20110;-65
2023/04/27 08:50:50;;;;;;;7.47;3.00;;;;;;;;;;5073339;28;20052;-63
2023/04/27 08:53:19;;;;;;;6.20;3.10;;;;;;;;;;5072347;28;20555;-63
2023/04/27 08:55:56;;;;;;;5.93;3.47;;;;;;;;;;5073094;28;20560;-63
2023/04/27 08:58:35;;;;;;;7.10;3.80;;;;;;;;;;5067439;28;20044;-63
2023/04/27 09:01:06;;;;;;;7.53;3.63;;;;;;;;;;5086345;28;20064;-62
2023/04/27 09:03:34;;;;;;;9.13;3.65;;;;;;;;;;5073073;28;20466;-62
2023/04/27 09:06:03;;;;;;;6.28;4.00;;;;;;;;;;5073204;28;20044;-62
2023/04/27 09:08:46;;;;;;;8.27;4.03;;;;;;;;;;5072920;28;20067;-62
2023/04/27 09:11:14;;;;;;;7.90;3.60;;;;;;;;;;5077429;28;20039;-62
2023/04/27 09:13:44;;;;;;;9.98;3.60;;;;;;;;;;5092562;28;20076;-62
2023/04/27 09:16:15;;;;;;;8.05;3.60;;;;;;;;;;5074735;28;20474;-63
2023/04/27 09:18:43;;;;;;;6.68;3.50;;;;;;;;;;5078251;28;20048;-62
2023/04/27 09:21:21;;;;;;;6.90;3.00;;;;;;;;;;5093439;28;20039;-62
2023/04/27 09:23:48;;;;;;;9.80;3.35;;;;;;;;;;5079419;28;20052;-62
2023/04/27 09:26:20;;;;;;;5.45;3.40;;;;;;;;;;5093234;28;20036;-62
2023/04/27 09:28:49;;;;;;;7.53;3.60;;;;;;;;;;5092188;28;20052;-62
2023/04/27 09:31:16;;;;;;;5.80;3.83;;;;;;;;;;5076713;28;20110;-62
2023/04/27 09:33:46;;;;;;;8.25;4.15;;;;;;;;;;5072476;28;20037;-61
2023/04/27 09:36:20;;;;;;;7.63;4.10;;;;;;;;;;5072877;28;20037;-61
2023/04/27 09:38:47;;;;;;;6.78;3.35;;;;;;;;;;5072561;28;20043;-61
2023/04/27 09:41:15;;;;;;;8.88;3.90;;;;;;;;;;5072478;28;20071;-61
2023/04/27 09:43:46;;;;;;;8.02;3.72;;;;;;;;;;5072399;28;20076;-60
2023/04/27 09:46:14;;;;;;;9.50;3.95;;;;;;;;;;5074294;28;20040;-60
2023/04/27 09:48:42;;;;;;;6.22;3.53;;;;;;;;;;5072596;28;20143;-61
2023/04/27 09:51:09;;;;;;;5.97;3.45;;;;;;;;;;5072069;28;20037;-61
2023/04/27 09:53:40;;;;;;;8.40;3.70;;;;;;;;;;5072111;28;20090;-61
2023/04/27 09:56:27;;;;;;;7.95;3.25;;;;;;;;;;5072195;28;20040;-61
2023/04/27 09:59:10;;;;;;;9.35;3.30;;;;;;;;;;5082185;28;20570;-61
2023/04/27 10:01:54;;;;;;;6.55;3.05;;;;;;;;;;5059661;28;20036;-61
2023/04/27 10:04:24;;;;;;;6.85;3.00;;;;;;;;;;5072232;28;20071;-61
2023/04/27 10:06:55;;;;;;;8.52;3.40;;;;;;;;;;5071311;28;20119;-61
2023/04/27 10:09:24;;;;;;;9.50;4.10;;;;;;;;;;5076603;28;20470;-61
2023/04/27 10:11:53;;;;;;;10.38;4.13;;;;;;;;;;5084041;28;20044;-61
2023/04/27 10:14:21;;;;;;;5.88;3.13;;;;;;;;;;5071318;28;20052;-61
2023/04/27 10:16:53;;;;;;;8.73;3.17;;;;;;;;;;5077200;28;20055;-61
2023/04/27 10:19:22;;;;;;;6.88;3.20;;;;;;;;;;5080627;28;20040;-62
2023/04/27 10:22:02;;;;;;;6.78;3.00;;;;;;;;;;5090490;28;20036;-61
2023/04/27 10:24:43;;;;;;;8.43;3.50;;;;;;;;;;5092402;28;20040;-61
2023/04/27 10:27:12;;;;;;;8.23;3.28;;;;;;;;;;5092269;28;20068;-61
2023/04/27 10:29:41;;;;;;;7.15;3.50;;;;;;;;;;5092610;28;20048;-61
2023/04/27 10:32:11;;;;;;;8.10;3.40;;;;;;;;;;5090959;28;20036;-62
2023/04/27 10:34:39;;;;;;;9.82;4.10;;;;;;;;;;5092309;28;20089;-61
2023/04/27 10:37:11;;;;;;;6.57;3.58;;;;;;;;;;5091920;28;20032;-62
2023/04/27 10:39:39;;;;;;;6.95;3.63;;;;;;;;;;5090381;28;20086;-61
2023/04/27 10:42:27;;;;;;;7.13;3.85;;;;;;;;;;5083915;28;20044;-61
2023/04/27 10:44:57;;;;;;;5.25;3.30;;;;;;;;;;5071767;28;20047;-61
2023/04/27 10:47:35;;;;;;;9.00;4.15;;;;;;;;;;5071663;28;20041;-61
2023/04/27 10:50:04;;;;;;;5.18;3.30;;;;;;;;;;5071338;28;20037;-62
2023/04/27 10:52:32;;;;;;;8.90;3.65;;;;;;;;;;5070538;28;20486;-62
2023/04/27 10:55:20;;;;;;;8.60;4.10;;;;;;;;;;5071535;28;20509;-62
2023/04/27 10:57:48;;;;;;;7.88;3.95;;;;;;;;;;5071611;28;20393;-61
2023/04/27 11:00:17;;;;;;;8.82;3.70;;;;;;;;;;5071697;28;20075;-62
2023/04/27 11:02:45;;;;;;;8.25;3.53;;;;;;;;;;5070835;28;20392;-61
2023/04/27 11:05:19;;;;;;;5.82;3.30;;;;;;;;;;5071496;28;20037;-61
2023/04/27 11:07:47;;;;;;;9.18;3.38;;;;;;;;;;5071658;28;20048;-61
2023/04/27 11:10:15;;;;;;;8.80;3.72;;;;;;;;;;5071499;28;20494;-61
2023/04/27 11:12:43;;;;;;;8.95;4.50;;;;;;;;;;5071625;28;20452;-61
2023/04/27 11:15:11;;;;;;;7.32;3.63;;;;;;;;;;5079442;28;20115;-62
2023/04/27 11:17:39;;;;;;;6.78;3.50;;;;;;;;;;5071209;28;20044;-62
2023/04/27 11:20:07;;;;;;;6.47;4.00;;;;;;;;;;5068909;28;20036;-62
2023/04/27 11:22:43;;;;;;;6.90;3.50;;;;;;;;;;5090545;28;20090;-62
2023/04/27 11:25:11;;;;;;;6.40;3.88;;;;;;;;;;5095737;28;20032;-62
2023/04/27 11:27:40;;;;;;;6.10;3.30;;;;;;;;;;5095164;28;20048;-62
2023/04/27 11:30:18;;;;;;;3.70;2.92;;;;;;;;;;5095565;28;20517;-62
2023/04/27 11:32:46;;;;;;;9.35;3.95;;;;;;;;;;5095294;28;20040;-62
2023/04/27 11:35:14;;;;;;;5.85;3.33;;;;;;;;;;5094748;28;20068;-62
2023/04/27 11:37:42;;;;;;;5.13;3.15;;;;;;;;;;5094351;28;20517;-62
2023/04/27 11:40:12;;;;;;;6.20;3.10;;;;;;;;;;5095440;28;20035;-61
2023/04/27 11:42:45;;;;;;;5.07;3.20;;;;;;;;;;5094137;28;20135;-61
2023/04/27 11:45:16;;;;;;;6.32;4.07;;;;;;;;;;5093950;28;20561;-61
2023/04/27 11:47:46;;;;;;;5.53;3.15;;;;;;;;;;5094036;28;20036;-60
2023/04/27 11:50:14;;;;;;;6.68;3.65;;;;;;;;;;5095147;28;20101;-60
2023/04/27 11:52:41;;;;;;;7.80;3.20;;;;;;;;;;5095190;28;20042;-60
2023/04/27 11:55:14;;;;;;;7.15;3.72;;;;;;;;;;5093941;28;20075;-61
2023/04/27 11:57:42;;;;;;;6.45;3.35;;;;;;;;;;5095291;28;20050;-61
2023/04/27 12:00:10;;;;;;;4.63;2.70;;;;;;;;;;5094785;28;20394;-61
2023/04/27 12:02:42;;;;;;;4.13;2.60;;;;;;;;;;5094983;28;20036;-61
2023/04/27 12:05:11;;;;;;;4.55;2.67;;;;;;;;;;5094764;28;20128;-61
2023/04/27 12:07:40;;;;;;;5.93;2.50;;;;;;;;;;5093593;28;20052;-61
2023/04/27 12:10:08;;;;;;;5.13;2.85;;;;;;;;;;5094846;28;20465;-61
2023/04/27 12:12:35;;;;;;;4.05;2.83;;;;;;;;;;5094844;28;20036;-61
2023/04/27 12:15:03;;;;;;;5.00;2.60;;;;;;;;;;5094564;28;20592;-62
2023/04/27 12:17:31;;;;;;;3.42;2.50;;;;;;;;;;5094578;28;20044;-62
2023/04/27 12:19:59;;;;;;;5.78;2.67;;;;;;;;;;5093453;28;20044;-62
2023/04/27 12:22:27;;;;;;;3.72;2.22;;;;;;;;;;5094507;28;20047;-62
2023/04/27 12:24:55;;;;;;;4.60;2.80;;;;;;;;;;5094478;28;20033;-62
2023/04/27 12:27:22;;;;;;;5.20;2.60;;;;;;;;;;5094393;28;20050;-62
2023/04/27 12:29:51;;;;;;;6.50;2.85;;;;;;;;;;5094209;28;20048;-62
2023/04/27 12:32:18;;;;;;;4.88;2.33;;;;;;;;;;5093736;28;20040;-62
2023/04/27 12:34:46;;;;;;;6.28;3.10;;;;;;;;;;5094374;28;20044;-62
2023/04/27 12:37:13;;;;;;;7.85;3.00;;;;;;;;;;5094334;28;20040;-62
2023/04/27 12:39:41;;;;;;;7.10;2.95;;;;;;;;;;5094411;28;20035;-60
2023/04/27 12:42:08;;;;;;;6.05;2.80;;;;;;;;;;5093057;28;20456;-62
2023/04/27 12:44:36;;;;;;;4.82;2.53;;;;;;;;;;5094042;28;20097;-62
2023/04/27 12:47:04;;;;;;;4.22;2.85;;;;;;;;;;5094155;28;20039;-62
2023/04/27 12:49:31;;;;;;;4.85;2.50;;;;;;;;;;5093980;28;20090;-62
2023/04/27 12:51:59;;;;;;;9.38;6.28;;;;;;;;;;5094180;28;20043;-62
2023/04/27 12:54:26;;;;;;;6.43;3.20;;;;;;;;;;5093917;28;20040;-62
2023/04/27 12:56:54;;;;;;;4.22;2.60;;;;;;;;;;5094053;28;20044;-62
2023/04/27 12:59:21;;;;;;;4.88;2.40;;;;;;;;;;5093701;28;20051;-62
2023/04/27 13:01:49;;;;;;;4.80;2.95;;;;;;;;;;5093852;28;20047;-62
2023/04/27 13:04:19;;;;;;;4.38;2.72;;;;;;;;;;5093901;28;20048;-62
2023/04/27 13:06:49;;;;;;;3.85;2.80;;;;;;;;;;5093724;28;20040;-63
2023/04/27 13:09:16;;;;;;;4.22;3.00;;;;;;;;;;5093476;28;20044;-60
2023/04/27 13:11:43;;;;;;;4.03;2.70;;;;;;;;;;5075475;28;20040;-61
2023/04/27 13:14:11;;;;;;;4.30;2.50;;;;;;;;;;5093771;28;20055;-61
2023/04/27 13:16:39;;;;;;;4.70;2.35;;;;;;;;;;5074933;28;20608;-61
2023/04/27 13:19:07;;;;;;;4.80;2.65;;;;;;;;;;5093382;28;20052;-62
2023/04/27 13:21:34;;;;;;;3.10;2.08;;;;;;;;;;5093175;28;20066;-61
2023/04/27 13:24:02;;;;;;;3.88;2.70;;;;;;;;;;5092663;28;20032;-61
2023/04/27 13:26:30;;;;;;;4.50;2.47;;;;;;;;;;5090373;28;20040;-60
2023/04/27 13:28:57;;;;;;;5.35;2.40;;;;;;;;;;5072596;28;20103;-61
2023/04/27 13:31:25;;;;;;;4.68;2.53;;;;;;;;;;5055208;28;20433;-61
2023/04/27 13:33:53;;;;;;;4.50;2.72;;;;;;;;;;5072932;28;20044;-61
2023/04/27 13:36:20;;;;;;;4.80;3.03;;;;;;;;;;5073084;28;20037;-60
2023/04/27 13:38:48;;;;;;;3.85;2.50;;;;;;;;;;5055189;28;20048;-61
2023/04/27 13:41:15;;;;;;;4.47;2.40;;;;;;;;;;5072751;28;20502;-60
2023/04/27 13:43:43;;;;;;;4.07;2.50;;;;;;;;;;5079990;28;20052;-60
2023/04/27 13:46:10;;;;;;;4.00;2.45;;;;;;;;;;5085824;28;20097;-60
2023/04/27 13:48:38;;;;;;;4.50;2.40;;;;;;;;;;5076912;28;20040;-61
2023/04/27 13:51:05;;;;;;;7.75;2.05;;;;;;;;;;5075567;28;20060;-61
2023/04/27 13:53:33;;;;;;;3.75;2.15;;;;;;;;;;5090072;28;20044;-60
2023/04/27 13:56:01;;;;;;;5.65;2.60;;;;;;;;;;5056698;28;20047;-61
2023/04/27 13:58:29;;;;;;;4.70;2.30;;;;;;;;;;5071815;28;20521;-61
2023/04/27 14:00:57;;;;;;;3.65;2.10;;;;;;;;;;5084973;28;20052;-60
2023/04/27 14:03:25;;;;;;;4.63;2.33;;;;;;;;;;5074373;28;20044;-61
2023/04/27 14:05:52;;;;;;;6.03;2.70;;;;;;;;;;5092291;28;20512;-60
2023/04/27 14:08:20;;;;;;;5.47;2.80;;;;;;;;;;5075711;28;20153;-61
2023/04/27 14:10:48;;;;;;;4.90;2.45;;;;;;;;;;5081230;28;20101;-60
2023/04/27 14:13:18;;;;;;;5.88;2.33;;;;;;;;;;5092332;28;20040;-60
2023/04/27 14:15:46;;;;;;;3.25;2.45;;;;;;;;;;5091797;28;20397;-60
2023/04/27 14:18:13;;;;;;;5.72;2.30;;;;;;;;;;5073678;28;20045;-60
2023/04/27 14:20:41;;;;;;;4.03;2.40;;;;;;;;;;5072073;28;20521;-61
2023/04/27 14:23:09;;;;;;;4.60;2.45;;;;;;;;;;5073360;28;20440;-61
2023/04/27 14:25:37;;;;;;;3.28;2.40;;;;;;;;;;5078922;28;20063;-61
2023/04/27 14:28:05;;;;;;;4.57;2.33;;;;;;;;;;5077158;28;20037;-60
2023/04/27 14:30:33;;;;;;;3.33;2.63;;;;;;;;;;5072000;28;20091;-60
2023/04/27 14:33:02;;;;;;;3.70;2.38;;;;;;;;;;5071977;28;20071;-60
2023/04/27 14:35:29;;;;;;;5.50;2.47;;;;;;;;;;5072235;28;20384;-61
2023/04/27 14:38:00;;;;;;;5.75;2.25;;;;;;;;;;5070985;28;20040;-60
2023/04/27 14:40:29;;;;;;;4.38;2.67;;;;;;;;;;5071893;28;20129;-60
2023/04/27 14:43:00;;;;;;;5.45;2.78;;;;;;;;;;5072047;28;20032;-61
2023/04/27 14:45:27;;;;;;;4.15;2.90;;;;;;;;;;5072068;28;20101;-60
2023/04/27 14:48:10;;;;;;;6.75;2.72;;;;;;;;;;5076180;28;20029;-61
2023/04/27 14:50:37;;;;;;;4.32;2.38;;;;;;;;;;5072791;28;20540;-60